Time;durP1;ratioP1;P1;durP2;ratioP2;P2;SDS_P1;SDS_P2;PMS_P1;PMS_P2;Temp;Humidity;BMP_temperature;BMP_pressure;BME280_temperature;BME280_humidity;BME280_pressure;Samples;Min_cycle;Max_cycle;Signal;HPM_P1;HPM_P2
2022/08/06 00:01:52;;;;;;;3.08;1.17;;;12.90;99.90;;;;;;6111021;23;20095;-78
2022/08/06 00:04:20;;;;;;;1.25;0.80;;;12.90;99.90;;;;;;6135627;23;20043;-79
2022/08/06 00:06:46;;;;;;;2.55;0.90;;;12.90;99.90;;;;;;6161518;23;20036;-78
2022/08/06 00:09:12;;;;;;;2.33;0.90;;;12.80;99.90;;;;;;6161379;23;20013;-78
2022/08/06 00:11:39;;;;;;;1.02;0.93;;;12.70;99.90;;;;;;6187021;23;20349;-79
2022/08/06 00:14:06;;;;;;;2.60;0.90;;;12.60;99.90;;;;;;6136551;23;20008;-79
2022/08/06 00:16:34;;;;;;;0.93;0.70;;;12.60;99.90;;;;;;6161154;23;20008;-80
2022/08/06 00:18:59;;;;;;;2.33;0.82;;;12.60;99.90;;;;;;6161294;23;20027;-78
2022/08/06 00:21:25;;;;;;;2.38;0.90;;;12.60;99.90;;;;;;6160500;23;20013;-78
2022/08/06 00:23:51;;;;;;;2.20;0.70;;;12.60;99.90;;;;;;6135895;23;20425;-78
2022/08/06 00:26:17;;;;;;;2.88;1.13;;;12.60;99.90;;;;;;6160779;23;20013;-79
2022/08/06 00:28:42;;;;;;;2.78;1.00;;;12.50;99.90;;;;;;6135494;23;20016;-78
2022/08/06 00:31:08;;;;;;;2.60;0.93;;;12.50;99.90;;;;;;6134658;23;20115;-78
2022/08/06 00:33:34;;;;;;;0.80;0.73;;;12.50;99.90;;;;;;6134099;23;20021;-78
2022/08/06 00:36:01;;;;;;;2.80;1.13;;;12.50;99.90;;;;;;6186038;23;20017;-77
2022/08/06 00:38:26;;;;;;;2.60;0.95;;;12.40;99.90;;;;;;6160837;23;20012;-79
2022/08/06 00:40:53;;;;;;;2.35;0.88;;;12.50;99.90;;;;;;6186111;23;20396;-79
2022/08/06 00:43:19;;;;;;;2.00;0.93;;;12.50;99.90;;;;;;6184955;23;20434;-79
2022/08/06 00:45:45;;;;;;;2.28;1.00;;;12.40;99.90;;;;;;6159861;23;20016;-80
2022/08/06 00:48:11;;;;;;;2.42;0.93;;;12.40;99.90;;;;;;6161575;23;20027;-78
2022/08/06 00:50:36;;;;;;;1.88;0.80;;;12.40;99.90;;;;;;6161021;23;20012;-79
2022/08/06 00:53:03;;;;;;;2.95;0.90;;;12.40;99.90;;;;;;6162019;23;20016;-78
2022/08/06 00:55:30;;;;;;;4.75;1.20;;;12.40;99.90;;;;;;6161275;23;20098;-78
2022/08/06 00:57:56;;;;;;;2.40;0.80;;;12.50;99.90;;;;;;6187755;23;20017;-78
2022/08/06 01:00:22;;;;;;;2.20;0.88;;;12.50;99.90;;;;;;6162437;23;20485;-79
2022/08/06 01:02:47;;;;;;;1.98;1.00;;;12.50;99.90;;;;;;6163164;23;20067;-78
2022/08/06 01:05:13;;;;;;;2.15;0.90;;;12.50;99.90;;;;;;6137172;23;20008;-79
2022/08/06 01:07:39;;;;;;;1.88;0.85;;;12.60;99.90;;;;;;6162819;23;20091;-78
2022/08/06 01:10:05;;;;;;;1.05;0.90;;;12.50;99.90;;;;;;6163088;23;20164;-78
2022/08/06 01:12:31;;;;;;;0.98;0.70;;;12.50;99.90;;;;;;6187395;23;20016;-79
2022/08/06 01:14:56;;;;;;;2.05;0.90;;;12.60;99.90;;;;;;6162158;23;20016;-78
2022/08/06 01:17:28;;;;;;;1.33;1.00;;;12.60;99.90;;;;;;6162312;23;20376;-78
2022/08/06 01:20:19;;;;;;;2.17;0.85;;;12.70;99.90;;;;;;6187697;23;20013;-79
2022/08/06 01:23:14;;;;;;;2.05;0.80;;;12.70;99.90;;;;;;6162872;23;20728;-79
2022/08/06 01:25:58;;;;;;;5.63;1.10;;;12.70;99.90;;;;;;6185455;23;20041;-78
2022/08/06 01:28:50;;;;;;;2.23;0.90;;;12.70;99.90;;;;;;6162500;23;20013;-79
2022/08/06 01:31:25;;;;;;;3.42;1.30;;;12.70;99.90;;;;;;6162359;23;20016;-79
2022/08/06 01:33:57;;;;;;;2.92;1.23;;;12.70;99.90;;;;;;6186337;23;20024;-79
2022/08/06 01:36:47;;;;;;;3.53;1.85;;;12.60;99.90;;;;;;6162874;23;20018;-80
2022/08/06 01:39:15;;;;;;;4.95;2.20;;;12.50;99.90;;;;;;6162943;23;20346;-80
2022/08/06 01:41:48;;;;;;;3.60;2.28;;;12.40;99.90;;;;;;6163035;23;20056;-79
2022/08/06 01:44:20;;;;;;;3.85;2.80;;;12.40;99.90;;;;;;6161934;23;20111;-79
2022/08/06 01:46:53;;;;;;;3.95;2.92;;;12.40;99.90;;;;;;6186789;23;20591;-79
2022/08/06 01:49:30;;;;;;;3.08;2.58;;;12.30;99.90;;;;;;6162043;23;20070;-79
2022/08/06 01:51:59;;;;;;;9.27;3.83;;;12.30;99.90;;;;;;6187570;23;20140;-79
2022/08/06 01:54:28;;;;;;;6.78;2.72;;;12.30;99.90;;;;;;6160651;23;20044;-78
2022/08/06 01:56:57;;;;;;;4.50;2.80;;;12.30;99.90;;;;;;6162516;23;20611;-79
2022/08/06 01:59:30;;;;;;;2.72;2.28;;;12.20;99.90;;;;;;6186569;23;20008;-79
2022/08/06 02:01:57;;;;;;;5.32;2.65;;;12.20;99.90;;;;;;6187077;23;20079;-77
2022/08/06 02:04:29;;;;;;;2.95;2.13;;;12.10;99.90;;;;;;6134610;23;20012;-78
2022/08/06 02:06:56;;;;;;;3.47;2.10;;;12.10;99.90;;;;;;6162353;23;20040;-78
2022/08/06 02:09:23;;;;;;;4.90;2.70;;;12.10;99.90;;;;;;6113538;23;20067;-78
2022/08/06 02:12:10;;;;;;;3.92;2.13;;;12.00;99.90;;;;;;6161808;23;20015;-78
2022/08/06 02:14:42;;;;;;;2.38;1.98;;;12.00;99.90;;;;;;6161127;23;20039;-78
2022/08/06 02:17:10;;;;;;;4.38;2.53;;;12.00;99.90;;;;;;6162174;23;20012;-77
2022/08/06 02:19:39;;;;;;;5.38;2.40;;;12.10;99.90;;;;;;6161501;23;20016;-77
2022/08/06 02:22:06;;;;;;;8.13;3.13;;;12.10;99.90;;;;;;6162606;23;20012;-79
2022/08/06 02:24:34;;;;;;;3.17;2.47;;;12.00;99.90;;;;;;6136681;23;20120;-79
2022/08/06 02:27:02;;;;;;;4.25;2.67;;;12.00;99.90;;;;;;6161945;23;20009;-79
2022/08/06 02:29:29;;;;;;;3.22;2.92;;;12.10;99.90;;;;;;6137221;23;20017;-79
2022/08/06 02:31:55;;;;;;;6.63;3.42;;;12.10;99.90;;;;;;6186947;23;20008;-78
2022/08/06 02:34:22;;;;;;;4.13;3.45;;;12.10;99.90;;;;;;6137056;23;20063;-78
2022/08/06 02:36:57;;;;;;;4.00;3.58;;;12.10;99.90;;;;;;6135714;23;20027;-79
2022/08/06 02:39:31;;;;;;;5.05;4.15;;;12.10;99.90;;;;;;6185025;23;20338;-79
2022/08/06 02:42:23;;;;;;;4.90;3.83;;;12.10;99.90;;;;;;6162527;23;20016;-79
2022/08/06 02:44:58;;;;;;;5.30;3.38;;;12.10;99.90;;;;;;6161021;23;20008;-79
2022/08/06 02:47:35;;;;;;;3.33;3.03;;;12.10;99.90;;;;;;6186195;23;20389;-79
2022/08/06 02:50:03;;;;;;;6.10;2.40;;;12.10;99.90;;;;;;6139060;23;20027;-79
2022/08/06 02:52:41;;;;;;;4.50;2.42;;;12.10;99.90;;;;;;6186682;23;20016;-78
2022/08/06 02:55:14;;;;;;;4.03;2.47;;;12.10;99.90;;;;;;6162455;23;20016;-80
2022/08/06 02:57:50;;;;;;;3.25;2.05;;;12.10;99.90;;;;;;6160869;23;20024;-79
2022/08/06 03:00:16;;;;;;;4.05;2.60;;;12.00;99.90;;;;;;6162212;23;20021;-80
2022/08/06 03:02:44;;;;;;;2.50;2.30;;;12.00;99.90;;;;;;6137272;23;20013;-80
2022/08/06 03:05:18;;;;;;;5.72;2.20;;;12.00;99.90;;;;;;6162106;23;20028;-79
2022/08/06 03:07:46;;;;;;;3.70;2.30;;;12.00;99.90;;;;;;6160720;23;20307;-79
2022/08/06 03:10:13;;;;;;;4.75;2.45;;;12.00;99.90;;;;;;6186481;23;20097;-78
2022/08/06 03:12:41;;;;;;;3.15;2.28;;;12.00;99.90;;;;;;6186351;23;20801;-79
2022/08/06 03:15:09;;;;;;;4.43;2.65;;;12.00;99.90;;;;;;6186488;23;20048;-79
2022/08/06 03:17:37;;;;;;;3.95;2.63;;;12.00;99.90;;;;;;6185074;23;20072;-78
2022/08/06 03:20:05;;;;;;;3.60;2.78;;;12.00;99.90;;;;;;6161419;23;20099;-78
2022/08/06 03:22:32;;;;;;;5.57;3.00;;;12.00;99.90;;;;;;6161349;23;20019;-79
2022/08/06 03:25:00;;;;;;;6.25;3.13;;;12.00;99.90;;;;;;6161753;23;20009;-78
2022/08/06 03:27:28;;;;;;;4.50;2.85;;;11.90;99.90;;;;;;6160707;23;20009;-78
2022/08/06 03:29:55;;;;;;;4.68;3.00;;;11.90;99.90;;;;;;6162597;23;20027;-79
2022/08/06 03:32:21;;;;;;;3.25;2.60;;;11.90;99.90;;;;;;6186307;23;20346;-78
2022/08/06 03:34:48;;;;;;;3.90;2.65;;;11.90;99.90;;;;;;6186744;23;20020;-78
2022/08/06 03:37:18;;;;;;;3.83;2.75;;;11.90;99.90;;;;;;6161553;23;20452;-79
2022/08/06 03:39:46;;;;;;;2.97;2.67;;;11.90;99.90;;;;;;6136215;23;20349;-78
2022/08/06 03:42:11;;;;;;;5.63;3.03;;;11.80;99.90;;;;;;6186381;23;20015;-78
2022/08/06 03:44:37;;;;;;;5.57;2.78;;;11.90;99.90;;;;;;6137269;23;20044;-79
2022/08/06 03:47:11;;;;;;;2.90;2.60;;;11.80;99.90;;;;;;6137645;23;20012;-79
2022/08/06 03:49:48;;;;;;;3.00;2.35;;;11.80;99.90;;;;;;6160416;23;20012;-79
2022/08/06 03:52:21;;;;;;;3.47;2.55;;;11.80;99.90;;;;;;6162222;23;20017;-79
2022/08/06 03:54:50;;;;;;;4.03;2.35;;;11.80;99.90;;;;;;6161818;23;20303;-79
2022/08/06 03:57:20;;;;;;;3.92;2.25;;;11.80;99.90;;;;;;6161362;23;20023;-78
2022/08/06 03:59:50;;;;;;;2.65;2.10;;;11.70;99.90;;;;;;6161027;23;20023;-78
2022/08/06 04:02:17;;;;;;;4.03;2.70;;;11.70;99.90;;;;;;6162260;23;20354;-79
2022/08/06 04:04:44;;;;;;;3.92;2.83;;;11.70;99.90;;;;;;6161783;23;20337;-78
2022/08/06 04:07:16;;;;;;;3.38;2.38;;;11.80;99.90;;;;;;6162354;23;20465;-79
2022/08/06 04:09:44;;;;;;;2.40;2.20;;;11.80;99.90;;;;;;6135025;23;20016;-80
2022/08/06 04:12:10;;;;;;;3.25;2.20;;;11.80;99.90;;;;;;6161669;23;20016;-78
2022/08/06 04:14:36;;;;;;;2.72;2.25;;;11.70;99.90;;;;;;6136837;23;20016;-80
2022/08/06 04:17:03;;;;;;;2.17;1.98;;;11.80;99.90;;;;;;6161643;23;20021;-79
2022/08/06 04:19:30;;;;;;;2.92;2.30;;;11.80;99.90;;;;;;6135306;23;20352;-79
2022/08/06 04:21:56;;;;;;;2.70;2.20;;;11.90;99.90;;;;;;6186865;23;20103;-79
2022/08/06 04:24:22;;;;;;;3.17;2.47;;;11.90;99.90;;;;;;6136647;23;20048;-78
2022/08/06 04:26:51;;;;;;;3.47;2.42;;;11.90;99.90;;;;;;6137044;23;20019;-79
2022/08/06 04:29:19;;;;;;;3.38;2.15;;;12.00;99.90;;;;;;6186192;23;20785;-81
2022/08/06 04:31:47;;;;;;;4.38;2.35;;;12.00;99.90;;;;;;6137582;23;20013;-79
2022/08/06 04:34:22;;;;;;;2.35;2.15;;;12.10;99.90;;;;;;6162329;23;20020;-79
2022/08/06 04:36:49;;;;;;;4.65;2.60;;;12.10;99.90;;;;;;6186612;23;20009;-79
2022/08/06 04:39:16;;;;;;;2.80;2.45;;;12.20;99.90;;;;;;6161987;23;20062;-79
2022/08/06 04:41:42;;;;;;;2.85;2.55;;;12.30;99.90;;;;;;6160214;23;20024;-79
2022/08/06 04:44:09;;;;;;;3.58;2.58;;;12.30;99.90;;;;;;6137593;23;20028;-79
2022/08/06 04:46:35;;;;;;;3.45;2.33;;;12.40;99.90;;;;;;6136881;23;20016;-78
2022/08/06 04:49:01;;;;;;;3.47;2.47;;;12.50;99.90;;;;;;6161965;23;20012;-80
2022/08/06 04:51:27;;;;;;;5.15;2.72;;;12.50;99.90;;;;;;6136890;23;20023;-79
2022/08/06 04:53:52;;;;;;;3.08;2.45;;;12.50;99.90;;;;;;6162671;23;20052;-79
2022/08/06 04:56:18;;;;;;;3.25;2.20;;;12.50;99.90;;;;;;6162638;23;20028;-79
2022/08/06 04:58:44;;;;;;;3.08;2.53;;;12.50;99.90;;;;;;6137424;23;20067;-79
2022/08/06 05:01:09;;;;;;;2.92;2.60;;;12.60;99.90;;;;;;6161157;23;20016;-78
2022/08/06 05:03:35;;;;;;;3.55;2.50;;;12.70;99.90;;;;;;6136564;23;20023;-79
2022/08/06 05:06:12;;;;;;;3.13;2.55;;;12.80;99.90;;;;;;6160566;23;20019;-80
2022/08/06 05:08:41;;;;;;;3.25;2.50;;;12.90;99.90;;;;;;6160782;23;20341;-79
2022/08/06 05:11:30;;;;;;;3.08;2.55;;;13.00;99.90;;;;;;6160713;23;20508;-80
2022/08/06 05:14:01;;;;;;;6.45;2.67;;;13.10;99.90;;;;;;6186212;23;20087;-78
2022/08/06 05:16:31;;;;;;;4.82;2.70;;;13.20;99.90;;;;;;6163469;23;20020;-79
2022/08/06 05:19:09;;;;;;;2.97;2.30;;;13.20;99.90;;;;;;6137301;23;20020;-79
2022/08/06 05:21:38;;;;;;;2.30;1.95;;;13.30;99.90;;;;;;6162273;23;20067;-79
2022/08/06 05:24:04;;;;;;;2.65;2.20;;;13.40;99.90;;;;;;6187487;23;20097;-78
2022/08/06 05:26:30;;;;;;;5.00;2.05;;;13.30;99.90;;;;;;6161617;23;20425;-79
2022/08/06 05:28:56;;;;;;;2.55;2.05;;;13.40;99.90;;;;;;6162249;23;20009;-79
2022/08/06 05:31:34;;;;;;;3.08;2.40;;;13.40;99.90;;;;;;6137934;23;20016;-79
2022/08/06 05:34:01;;;;;;;4.40;2.05;;;13.30;99.90;;;;;;6162678;23;20025;-80
2022/08/06 05:36:27;;;;;;;2.60;1.90;;;13.40;99.90;;;;;;6137628;23;20095;-78
2022/08/06 05:38:52;;;;;;;3.33;1.98;;;13.30;99.90;;;;;;6136268;23;20074;-79
2022/08/06 05:41:18;;;;;;;2.97;1.65;;;13.40;99.90;;;;;;6163927;23;20016;-79
2022/08/06 05:43:45;;;;;;;2.63;1.55;;;13.30;99.90;;;;;;6162963;23;20013;-78
2022/08/06 05:46:16;;;;;;;3.13;1.58;;;13.30;99.90;;;;;;6164880;23;20091;-79
2022/08/06 05:48:48;;;;;;;1.92;1.70;;;13.40;99.90;;;;;;6163860;23;20009;-79
2022/08/06 05:51:39;;;;;;;2.72;1.90;;;13.50;99.90;;;;;;6164340;23;20045;-82
2022/08/06 05:54:11;;;;;;;3.22;1.70;;;13.60;99.90;;;;;;6164728;23;20016;-79
2022/08/06 05:56:41;;;;;;;2.42;1.80;;;13.70;99.90;;;;;;6164018;23;20437;-80
2022/08/06 05:59:16;;;;;;;2.45;1.80;;;13.80;99.90;;;;;;6188478;23;20025;-79
2022/08/06 06:01:42;;;;;;;4.50;1.95;;;14.00;99.90;;;;;;6187929;23;20333;-78
2022/08/06 06:04:08;;;;;;;3.30;1.77;;;14.20;99.90;;;;;;6164209;23;20019;-80
2022/08/06 06:06:34;;;;;;;2.70;2.00;;;14.30;99.90;;;;;;6163902;23;20009;-79
2022/08/06 06:09:00;;;;;;;4.00;2.30;;;14.40;99.90;;;;;;6139679;23;20052;-79
2022/08/06 06:11:27;;;;;;;3.55;2.40;;;14.60;99.90;;;;;;6114636;23;20017;-79
2022/08/06 06:13:54;;;;;;;4.55;2.47;;;14.70;99.90;;;;;;6164150;23;20086;-79
2022/08/06 06:16:28;;;;;;;2.92;2.00;;;14.70;99.90;;;;;;6164380;23;20040;-79
2022/08/06 06:19:06;;;;;;;2.88;1.67;;;14.60;99.90;;;;;;6189159;23;20092;-78
2022/08/06 06:21:55;;;;;;;3.20;1.80;;;14.50;99.90;;;;;;6162340;23;20341;-79
2022/08/06 06:24:46;;;;;;;2.78;1.70;;;14.60;99.90;;;;;;6164720;23;20349;-79
2022/08/06 06:27:18;;;;;;;2.10;1.50;;;14.60;99.90;;;;;;6164211;23;20087;-80
2022/08/06 06:29:55;;;;;;;2.45;1.50;;;14.50;99.90;;;;;;6164319;23;20704;-80
2022/08/06 06:32:41;;;;;;;3.75;1.50;;;14.50;99.90;;;;;;6164677;23;20016;-80
2022/08/06 06:35:38;;;;;;;4.45;1.40;;;14.50;99.90;;;;;;6164252;23;20095;-80
2022/08/06 06:38:36;;;;;;;5.13;1.90;;;14.40;99.90;;;;;;6163952;23;20016;-81
2022/08/06 06:41:10;;;;;;;3.38;1.70;;;14.50;99.90;;;;;;6162946;23;20017;-79
2022/08/06 06:43:36;;;;;;;2.90;1.38;;;14.40;99.90;;;;;;6163026;23;20013;-79
2022/08/06 06:46:23;;;;;;;2.10;1.70;;;14.60;99.90;;;;;;6188846;23;20303;-79
2022/08/06 06:48:52;;;;;;;2.90;1.63;;;14.50;99.90;;;;;;6188421;23;20362;-80
2022/08/06 06:51:31;;;;;;;2.65;1.65;;;14.70;99.90;;;;;;6187052;23;20071;-80
2022/08/06 06:53:58;;;;;;;3.05;1.88;;;14.80;99.90;;;;;;6163993;23;20049;-80
2022/08/06 06:56:37;;;;;;;3.47;2.08;;;14.90;99.90;;;;;;6163880;23;20100;-80
2022/08/06 06:59:12;;;;;;;5.65;4.00;;;15.00;99.90;;;;;;6163947;23;20068;-80
2022/08/06 07:01:40;;;;;;;4.88;3.08;;;15.00;99.90;;;;;;6186715;23;20061;-78
2022/08/06 07:04:09;;;;;;;3.65;2.03;;;15.00;99.90;;;;;;6138786;23;20044;-80
2022/08/06 07:06:36;;;;;;;3.40;1.88;;;15.20;99.90;;;;;;6138859;23;20092;-80
2022/08/06 07:09:04;;;;;;;4.50;1.92;;;15.20;99.90;;;;;;6162860;23;20044;-79
2022/08/06 07:11:31;;;;;;;2.08;1.60;;;15.30;99.90;;;;;;6162811;23;20020;-80
2022/08/06 07:13:58;;;;;;;2.20;1.40;;;15.40;99.90;;;;;;6163425;23;20024;-80
2022/08/06 07:16:26;;;;;;;2.75;1.25;;;15.50;99.90;;;;;;6139046;23;20079;-81
2022/08/06 07:18:53;;;;;;;3.45;1.50;;;15.70;99.90;;;;;;6163553;23;20088;-80
2022/08/06 07:21:20;;;;;;;3.15;1.40;;;15.90;99.90;;;;;;6137629;23;20020;-80
2022/08/06 07:23:52;;;;;;;3.72;1.23;;;16.10;99.90;;;;;;6114759;23;20039;-80
2022/08/06 07:26:19;;;;;;;4.47;1.20;;;16.20;99.90;;;;;;6163820;23;20017;-79
2022/08/06 07:28:46;;;;;;;4.72;1.10;;;16.20;99.90;;;;;;6138784;23;20017;-73
2022/08/06 07:31:13;;;;;;;2.30;1.13;;;16.40;99.90;;;;;;6187570;23;20423;-79
2022/08/06 07:33:41;;;;;;;2.72;1.00;;;16.50;99.90;;;;;;6187634;23;20306;-79
2022/08/06 07:36:08;;;;;;;3.97;1.25;;;16.70;99.90;;;;;;6162888;23;20023;-79
2022/08/06 07:38:36;;;;;;;1.63;0.90;;;16.80;99.90;;;;;;6188171;23;20098;-79
2022/08/06 07:41:05;;;;;;;1.75;0.73;;;17.00;99.90;;;;;;6187830;23;20039;-78
2022/08/06 07:43:48;;;;;;;1.25;0.77;;;17.00;99.90;;;;;;6138868;23;20016;-79
2022/08/06 07:46:19;;;;;;;3.38;0.80;;;17.30;99.90;;;;;;6163000;23;20013;-79
2022/08/06 07:48:49;;;;;;;1.95;0.88;;;17.40;99.90;;;;;;6162894;23;20089;-79
2022/08/06 07:51:16;;;;;;;2.10;0.85;;;17.50;99.90;;;;;;6188176;23;20024;-79
2022/08/06 07:53:44;;;;;;;2.33;0.80;;;17.50;99.90;;;;;;6162658;23;20088;-79
2022/08/06 07:56:11;;;;;;;1.10;0.70;;;17.50;99.90;;;;;;6163871;23;20063;-79
2022/08/06 07:58:37;;;;;;;2.03;0.73;;;17.50;99.90;;;;;;6163290;23;20436;-78
2022/08/06 08:01:05;;;;;;;2.30;0.80;;;17.50;99.90;;;;;;6163425;23;20016;-79
2022/08/06 08:06:21;;;;;;;2.45;0.60;;;17.60;99.90;;;;;;6187872;23;20048;-78
2022/08/06 08:08:50;;;;;;;2.10;0.80;;;17.90;99.90;;;;;;6163145;23;20013;-79
2022/08/06 08:11:18;;;;;;;1.92;0.70;;;18.00;99.90;;;;;;6162858;23;20012;-80
2022/08/06 08:13:43;;;;;;;1.92;0.70;;;18.00;99.90;;;;;;6187508;23;20030;-79
2022/08/06 08:16:13;;;;;;;2.67;1.13;;;18.20;99.90;;;;;;6113830;23;20103;-79
2022/08/06 08:18:39;;;;;;;3.33;0.75;;;18.20;99.90;;;;;;6163227;23;20016;-79
2022/08/06 08:21:06;;;;;;;2.45;0.73;;;18.30;99.90;;;;;;6163372;23;20484;-79
2022/08/06 08:23:35;;;;;;;1.17;0.70;;;18.30;99.90;;;;;;6161599;23;20012;-78
2022/08/06 08:26:02;;;;;;;1.65;0.50;;;18.40;99.90;;;;;;6160646;23;20013;-80
2022/08/06 08:28:29;;;;;;;1.60;0.93;;;18.40;99.90;;;;;;6137724;23;20013;-77
2022/08/06 08:31:06;;;;;;;1.77;0.77;;;18.50;99.90;;;;;;6163693;23;20846;-79
2022/08/06 08:33:33;;;;;;;1.02;0.88;;;18.60;99.90;;;;;;6161826;23;20048;-80
2022/08/06 08:36:00;;;;;;;2.20;0.80;;;19.00;99.90;;;;;;6161733;23;20012;-80
2022/08/06 08:38:31;;;;;;;2.13;0.80;;;18.90;99.90;;;;;;6159894;23;20103;-79
2022/08/06 08:41:03;;;;;;;1.60;0.70;;;18.80;99.90;;;;;;6186018;23;20016;-79
2022/08/06 08:43:44;;;;;;;2.55;0.90;;;18.20;99.90;;;;;;6161762;23;20012;-79
2022/08/06 08:46:13;;;;;;;1.70;0.80;;;18.50;99.90;;;;;;6187457;23;20150;-79
2022/08/06 08:48:46;;;;;;;2.83;1.38;;;18.40;99.90;;;;;;6139730;23;20341;-79
2022/08/06 08:51:16;;;;;;;1.90;0.95;;;18.30;99.90;;;;;;6162059;23;20099;-79
2022/08/06 08:53:55;;;;;;;3.30;1.33;;;18.30;99.90;;;;;;6113016;23;20017;-79
2022/08/06 08:56:22;;;;;;;3.20;0.90;;;18.50;99.90;;;;;;6162047;23;20017;-79
2022/08/06 08:58:48;;;;;;;2.67;1.05;;;18.60;99.90;;;;;;6137353;23;20068;-78
2022/08/06 09:01:20;;;;;;;5.47;1.23;;;18.40;99.90;;;;;;6162555;23;20453;-80
2022/08/06 09:03:49;;;;;;;2.83;1.10;;;18.40;99.90;;;;;;6160915;23;20013;-78
2022/08/06 09:06:18;;;;;;;2.85;1.30;;;18.50;99.90;;;;;;6161277;23;20012;-79
2022/08/06 09:08:46;;;;;;;2.63;1.27;;;18.80;99.90;;;;;;6138376;23;20055;-80
2022/08/06 09:11:12;;;;;;;3.33;1.50;;;18.80;99.90;;;;;;6136602;23;20043;-78
2022/08/06 09:13:38;;;;;;;3.95;1.30;;;18.70;99.90;;;;;;6114168;23;20099;-79
2022/08/06 09:16:04;;;;;;;4.05;1.30;;;18.50;99.90;;;;;;6161892;23;20056;-79
2022/08/06 09:22:08;;;;;;;2.45;1.00;;;17.80;99.90;;;;;;6028364;23;20033;-80
2022/08/06 09:24:53;;;;;;;3.72;1.23;;;18.10;99.90;;;;;;6172665;23;20345;-80
2022/08/06 09:27:44;;;;;;;1.60;1.08;;;18.50;99.90;;;;;;6139945;23;20048;-80
2022/08/06 09:31:01;;;;;;;2.70;1.52;;;18.10;99.90;;;;;;6161186;23;20016;-80
2022/08/06 09:34:00;;;;;;;4.25;1.40;;;17.70;99.90;;;;;;6187428;23;20116;-79
2022/08/06 09:36:58;;;;;;;3.22;1.23;;;18.30;99.90;;;;;;6215902;23;20147;-79
2022/08/06 09:39:40;;;;;;;3.33;1.30;;;18.10;99.90;;;;;;6163647;23;20013;-79
2022/08/06 09:42:56;;;;;;;;;;;;;;;;;;;;;
2022/08/06 09:53:00;;;;;;;3.33;1.60;;;20.60;99.90;;;;;;6133301;23;20373;-80
2022/08/06 09:56:00;;;;;;;5.03;2.08;;;20.70;99.90;;;;;;6162260;23;20020;-80
2022/08/06 09:58:35;;;;;;;1.65;1.23;;;21.30;99.90;;;;;;6134252;23;20464;-80
2022/08/06 10:01:19;;;;;;;1.92;1.50;;;21.80;99.90;;;;;;6133347;23;20017;-76
2022/08/06 10:03:45;;;;;;;2.65;1.20;;;22.00;99.90;;;;;;6155896;23;20109;-77
2022/08/06 10:06:20;;;;;;;3.60;1.40;;;22.10;99.90;;;;;;6153470;23;20011;-78
2022/08/06 10:08:51;;;;;;;3.40;1.40;;;21.30;99.90;;;;;;6131515;23;20043;-78
2022/08/06 10:11:37;;;;;;;3.63;1.65;;;20.50;99.90;;;;;;6132671;23;20091;-77
2022/08/06 10:14:04;;;;;;;3.17;1.70;;;20.00;99.90;;;;;;6156444;23;20017;-78
2022/08/06 10:16:32;;;;;;;3.75;1.77;;;20.40;99.90;;;;;;6156313;23;20386;-76
2022/08/06 10:18:59;;;;;;;2.60;1.90;;;21.20;99.90;;;;;;6107558;23;20013;-77
2022/08/06 10:21:27;;;;;;;4.35;1.65;;;21.20;99.90;;;;;;6133140;23;20013;-78
2022/08/06 10:23:58;;;;;;;2.35;1.45;;;20.90;99.90;;;;;;6131427;23;20370;-77
2022/08/06 10:26:36;;;;;;;1.85;1.48;;;20.60;99.90;;;;;;6131522;23;20013;-77
2022/08/06 10:29:07;;;;;;;1.88;1.50;;;21.20;99.90;;;;;;6133911;23;20068;-78
2022/08/06 10:31:34;;;;;;;1.80;1.45;;;21.60;99.90;;;;;;6131983;23;20021;-76
2022/08/06 10:34:19;;;;;;;3.42;1.88;;;21.50;99.90;;;;;;6107570;23;20024;-79
2022/08/06 10:36:54;;;;;;;3.05;1.60;;;21.10;99.90;;;;;;6107480;23;20016;-77
2022/08/06 10:39:26;;;;;;;4.60;1.90;;;21.50;99.90;;;;;;6110671;23;20035;-79
2022/08/06 10:41:55;;;;;;;2.40;1.70;;;22.00;99.90;;;;;;6132453;23;20017;-79
2022/08/06 10:44:22;;;;;;;1.92;1.50;;;22.00;99.90;;;;;;6132745;23;20070;-79
2022/08/06 10:46:51;;;;;;;3.97;2.08;;;21.50;99.90;;;;;;6132314;23;20009;-79
2022/08/06 10:49:19;;;;;;;3.30;1.73;;;21.10;99.90;;;;;;6133419;23;20013;-78
2022/08/06 10:51:45;;;;;;;2.08;1.45;;;21.20;99.90;;;;;;6156998;23;20013;-76
2022/08/06 10:54:12;;;;;;;1.83;1.63;;;21.80;99.90;;;;;;6131078;23;20051;-77
2022/08/06 10:56:38;;;;;;;2.88;2.17;;;22.20;99.90;;;;;;6143450;23;20055;-77
2022/08/06 10:59:05;;;;;;;2.72;1.63;;;22.50;99.90;;;;;;6161226;23;20021;-77
2022/08/06 11:02:09;;;;;;;3.42;2.03;;;21.80;99.90;;;;;;6161320;23;20021;-78
2022/08/06 11:04:57;;;;;;;2.40;1.70;;;21.30;99.90;;;;;;6185502;23;20008;-78
2022/08/06 11:07:37;;;;;;;2.38;1.63;;;21.60;99.90;;;;;;6160493;23;20292;-78
2022/08/06 11:10:25;;;;;;;2.65;1.80;;;21.30;99.90;;;;;;6161670;23;20385;-78
2022/08/06 11:13:09;;;;;;;2.67;1.65;;;21.10;99.90;;;;;;6162027;23;20012;-78
2022/08/06 11:15:36;;;;;;;2.80;1.95;;;21.30;99.90;;;;;;6185880;23;20422;-78
2022/08/06 11:18:07;;;;;;;3.00;1.60;;;21.60;98.80;;;;;;6187019;23;20019;-79
2022/08/06 11:20:36;;;;;;;2.10;1.70;;;22.10;98.80;;;;;;6160786;23;20517;-78
2022/08/06 11:23:14;;;;;;;2.25;1.73;;;22.00;95.60;;;;;;6161180;23;20044;-78
2022/08/06 11:25:43;;;;;;;2.30;1.85;;;22.20;85.80;;;;;;6159796;23;20008;-78
2022/08/06 11:28:12;;;;;;;2.33;1.83;;;22.50;91.00;;;;;;6135918;23;20066;-78
2022/08/06 11:30:48;;;;;;;2.38;1.95;;;23.30;85.10;;;;;;6161235;23;20426;-78
2022/08/06 11:33:32;;;;;;;3.20;2.10;;;23.70;84.30;;;;;;6137736;23;20024;-77
2022/08/06 11:36:02;;;;;;;3.80;1.90;;;23.40;40.90;;;;;;6158690;23;20024;-78
2022/08/06 11:38:43;;;;;;;3.33;1.80;;;22.40;84.10;;;;;;6161273;23;20024;-78
2022/08/06 11:41:17;;;;;;;6.50;2.17;;;22.30;63.50;;;;;;6160690;23;20016;-79
2022/08/06 11:43:47;;;;;;;2.42;2.03;;;22.90;85.70;;;;;;6162668;23;20098;-78
2022/08/06 11:46:50;;;;;;;2.15;1.83;;;23.10;81.60;;;;;;6161046;23;20013;-78
2022/08/06 11:49:33;;;;;;;4.18;2.30;;;23.20;69.00;;;;;;6162446;23;20339;-78
2022/08/06 11:52:10;;;;;;;2.78;2.30;;;22.50;80.00;;;;;;6185537;23;20019;-77
2022/08/06 11:55:00;;;;;;;6.40;2.60;;;22.00;86.80;;;;;;6162603;23;20044;-77
2022/08/06 11:57:26;;;;;;;2.90;2.30;;;22.10;75.80;;;;;;6113256;23;20036;-76
2022/08/06 11:59:54;;;;;;;2.60;2.40;;;21.90;87.70;;;;;;6162036;23;20005;-77
2022/08/06 12:02:39;;;;;;;3.05;2.53;;;22.00;76.80;;;;;;6160074;23;20021;-76
2022/08/06 12:05:05;;;;;;;;;;;21.80;62.80;;;;;;6162595;23;20147;-78
2022/08/06 12:07:36;;;;;;;3.47;2.88;;;22.30;64.20;;;;;;6184866;23;19986;-78
2022/08/06 12:10:05;;;;;;;4.57;3.38;;;23.10;86.20;;;;;;6137879;23;20333;-78
2022/08/06 12:12:45;;;;;;;3.55;2.95;;;23.40;78.20;;;;;;6163561;23;20338;-78
2022/08/06 12:15:19;;;;;;;3.53;3.05;;;23.10;70.90;;;;;;6188787;23;20023;-78
2022/08/06 12:17:57;;;;;;;3.10;2.80;;;22.70;52.60;;;;;;6187518;23;20017;-78
2022/08/06 12:20:35;;;;;;;3.22;2.92;;;22.90;46.10;;;;;;6161110;23;20392;-79
2022/08/06 12:23:03;;;;;;;4.68;3.40;;;22.70;20.80;;;;;;6186492;23;20054;-78
2022/08/06 12:25:33;;;;;;;4.00;3.50;;;22.60;39.90;;;;;;6187006;23;20023;-78
2022/08/06 12:28:00;;;;;;;3.67;3.38;;;22.90;33.40;;;;;;6187795;23;20441;-78
2022/08/06 12:30:27;;;;;;;4.00;3.05;;;23.20;38.00;;;;;;6186184;23;20020;-77
2022/08/06 12:33:00;;;;;;;4.38;3.05;;;23.10;29.60;;;;;;6113152;23;20500;-77
2022/08/06 12:35:26;;;;;;;4.73;3.33;;;23.40;8.70;;;;;;6162630;23;20024;-78
2022/08/06 12:37:52;;;;;;;4.38;3.30;;;23.10;15.90;;;;;;6184669;23;20441;-79
2022/08/06 12:40:28;;;;;;;3.58;3.05;;;23.20;31.20;;;;;;6133382;23;20326;-78
2022/08/06 12:43:02;;;;;;;4.90;3.70;;;23.20;25.40;;;;;;6160626;23;20021;-77
2022/08/06 12:45:30;;;;;;;4.07;3.53;;;22.90;19.50;;;;;;6161541;23;20020;-78
2022/08/06 12:48:05;;;;;;;4.70;3.40;;;23.30;9.30;;;;;;6186279;23;20023;-77
2022/08/06 12:50:34;;;;;;;3.65;3.35;;;23.40;6.30;;;;;;6162064;23;20345;-78
2022/08/06 12:53:09;;;;;;;3.50;3.20;;;23.40;1.00;;;;;;6161782;23;20051;-78
2022/08/06 12:55:43;;;;;;;3.67;3.20;;;23.40;1.00;;;;;;6163803;23;20059;-77
2022/08/06 12:58:11;;;;;;;4.38;3.38;;;23.50;1.00;;;;;;6160007;23;20094;-77
2022/08/06 13:00:40;;;;;;;3.78;3.17;;;22.60;21.70;;;;;;6188407;23;20013;-79
2022/08/06 13:03:08;;;;;;;3.40;3.10;;;22.30;27.70;;;;;;6163294;23;20382;-79
2022/08/06 13:05:34;;;;;;;3.38;3.08;;;22.50;17.00;;;;;;6164566;23;20067;-78
2022/08/06 13:08:04;;;;;;;4.07;3.67;;;22.70;1.80;;;;;;6141752;23;20008;-79
2022/08/06 13:10:30;;;;;;;4.10;3.70;;;23.00;5.60;;;;;;6161947;23;20103;-79
2022/08/06 13:12:58;;;;;;;3.88;3.55;;;23.50;4.40;;;;;;6163691;23;20071;-78
2022/08/06 13:15:25;;;;;;;3.90;3.10;;;23.50;2.20;;;;;;6164433;23;20055;-78
2022/08/06 13:18:06;;;;;;;5.88;2.97;;;23.50;1.00;;;;;;6189095;23;20012;-79
2022/08/06 13:20:44;;;;;;;3.80;3.47;;;23.40;1.00;;;;;;6161910;23;20021;-78
2022/08/06 13:23:12;;;;;;;3.55;3.25;;;23.50;1.00;;;;;;6163987;23;20013;-76
2022/08/06 13:25:46;;;;;;;3.85;3.28;;;23.10;8.70;;;;;;6164471;23;20008;-78